sensor_id;sensor_type;location;lat;lon;timestamp;P1;durP1;ratioP1;P2;durP2;ratioP2
67063;SDS011;58476;48.072;11.970;2023-03-13T00:00:15;3.03;;;1.70;;
67063;SDS011;58476;48.072;11.970;2023-03-13T00:02:41;3.67;;;1.67;;
67063;SDS011;58476;48.072;11.970;2023-03-13T00:05:07;3.40;;;1.73;;
67063;SDS011;58476;48.072;11.970;2023-03-13T00:07:32;3.25;;;1.63;;
67063;SDS011;58476;48.072;11.970;2023-03-13T00:09:57;5.55;;;2.10;;
67063;SDS011;58476;48.072;11.970;2023-03-13T00:12:23;4.78;;;1.77;;
67063;SDS011;58476;48.072;11.970;2023-03-13T00:14:48;4.25;;;1.80;;
67063;SDS011;58476;48.072;11.970;2023-03-13T00:17:13;4.47;;;1.85;;
67063;SDS011;58476;48.072;11.970;2023-03-13T00:19:39;3.08;;;1.58;;
67063;SDS011;58476;48.072;11.970;2023-03-13T00:22:04;5.10;;;1.50;;
67063;SDS011;58476;48.072;11.970;2023-03-13T00:24:29;3.55;;;1.73;;
67063;SDS011;58476;48.072;11.970;2023-03-13T00:26:55;7.00;;;2.08;;
67063;SDS011;58476;48.072;11.970;2023-03-13T00:29:20;4.95;;;1.80;;
67063;SDS011;58476;48.072;11.970;2023-03-13T00:31:45;3.28;;;1.40;;
67063;SDS011;58476;48.072;11.970;2023-03-13T00:34:11;5.03;;;1.60;;
67063;SDS011;58476;48.072;11.970;2023-03-13T00:36:36;3.70;;;2.45;;
67063;SDS011;58476;48.072;11.970;2023-03-13T00:39:02;5.25;;;1.80;;
67063;SDS011;58476;48.072;11.970;2023-03-13T00:41:30;3.65;;;1.50;;
67063;SDS011;58476;48.072;11.970;2023-03-13T00:43:57;3.53;;;1.75;;
67063;SDS011;58476;48.072;11.970;2023-03-13T00:46:23;2.58;;;1.60;;
67063;SDS011;58476;48.072;11.970;2023-03-13T00:48:50;4.00;;;1.70;;
67063;SDS011;58476;48.072;11.970;2023-03-13T00:51:17;2.10;;;1.40;;
67063;SDS011;58476;48.072;11.970;2023-03-13T00:53:44;2.13;;;1.40;;
67063;SDS011;58476;48.072;11.970;2023-03-13T00:56:14;2.45;;;1.50;;
67063;SDS011;58476;48.072;11.970;2023-03-13T00:58:41;2.15;;;1.60;;
67063;SDS011;58476;48.072;11.970;2023-03-13T01:03:41;2.97;;;1.45;;
67063;SDS011;58476;48.072;11.970;2023-03-13T01:06:12;2.42;;;1.52;;
67063;SDS011;58476;48.072;11.970;2023-03-13T01:08:39;3.90;;;1.65;;
67063;SDS011;58476;48.072;11.970;2023-03-13T01:11:09;2.47;;;1.42;;
67063;SDS011;58476;48.072;11.970;2023-03-13T01:13:39;2.45;;;1.38;;
67063;SDS011;58476;48.072;11.970;2023-03-13T01:16:23;3.50;;;1.40;;
67063;SDS011;58476;48.072;11.970;2023-03-13T01:18:50;1.50;;;1.40;;
67063;SDS011;58476;48.072;11.970;2023-03-13T01:21:18;3.25;;;1.77;;
67063;SDS011;58476;48.072;11.970;2023-03-13T01:23:44;2.60;;;1.60;;
67063;SDS011;58476;48.072;11.970;2023-03-13T01:26:10;1.55;;;1.45;;
67063;SDS011;58476;48.072;11.970;2023-03-13T01:28:36;1.70;;;1.58;;
67063;SDS011;58476;48.072;11.970;2023-03-13T01:33:36;2.70;;;1.40;;
67063;SDS011;58476;48.072;11.970;2023-03-13T01:36:02;3.10;;;1.45;;
67063;SDS011;58476;48.072;11.970;2023-03-13T01:38:28;3.17;;;1.80;;
67063;SDS011;58476;48.072;11.970;2023-03-13T01:40:53;4.35;;;1.50;;
67063;SDS011;58476;48.072;11.970;2023-03-13T01:43:20;4.00;;;1.48;;
67063;SDS011;58476;48.072;11.970;2023-03-13T01:52:18;2.53;;;1.48;;
67063;SDS011;58476;48.072;11.970;2023-03-13T01:55:06;3.25;;;2.65;;
67063;SDS011;58476;48.072;11.970;2023-03-13T01:57:47;3.60;;;1.20;;
67063;SDS011;58476;48.072;11.970;2023-03-13T02:00:16;1.45;;;1.30;;
67063;SDS011;58476;48.072;11.970;2023-03-13T02:02:47;1.45;;;1.33;;
67063;SDS011;58476;48.072;11.970;2023-03-13T02:05:16;4.53;;;1.45;;
67063;SDS011;58476;48.072;11.970;2023-03-13T02:07:49;2.15;;;1.20;;
67063;SDS011;58476;48.072;11.970;2023-03-13T02:10:21;1.55;;;1.42;;
67063;SDS011;58476;48.072;11.970;2023-03-13T02:12:47;1.40;;;1.20;;
67063;SDS011;58476;48.072;11.970;2023-03-13T02:15:20;2.20;;;1.35;;
67063;SDS011;58476;48.072;11.970;2023-03-13T02:17:47;1.48;;;1.30;;
67063;SDS011;58476;48.072;11.970;2023-03-13T02:20:14;2.10;;;1.30;;
67063;SDS011;58476;48.072;11.970;2023-03-13T02:28:05;1.65;;;1.10;;
67063;SDS011;58476;48.072;11.970;2023-03-13T02:30:34;2.03;;;1.30;;
67063;SDS011;58476;48.072;11.970;2023-03-13T02:33:01;3.13;;;1.48;;
67063;SDS011;58476;48.072;11.970;2023-03-13T02:35:28;1.95;;;1.38;;
67063;SDS011;58476;48.072;11.970;2023-03-13T02:37:56;1.58;;;1.40;;
67063;SDS011;58476;48.072;11.970;2023-03-13T02:40:27;1.88;;;1.48;;
67063;SDS011;58476;48.072;11.970;2023-03-13T02:42:55;2.70;;;1.20;;
67063;SDS011;58476;48.072;11.970;2023-03-13T02:45:24;3.92;;;1.30;;
67063;SDS011;58476;48.072;11.970;2023-03-13T02:47:50;2.30;;;1.30;;
67063;SDS011;58476;48.072;11.970;2023-03-13T02:50:15;2.03;;;1.30;;
67063;SDS011;58476;48.072;11.970;2023-03-13T02:52:48;2.20;;;1.55;;
67063;SDS011;58476;48.072;11.970;2023-03-13T02:55:21;1.88;;;1.45;;
67063;SDS011;58476;48.072;11.970;2023-03-13T02:57:50;1.77;;;1.40;;
67063;SDS011;58476;48.072;11.970;2023-03-13T03:00:16;8.95;;;3.45;;
67063;SDS011;58476;48.072;11.970;2023-03-13T03:02:43;2.28;;;1.50;;
67063;SDS011;58476;48.072;11.970;2023-03-13T03:05:09;3.58;;;1.35;;
67063;SDS011;58476;48.072;11.970;2023-03-13T03:07:35;1.40;;;1.30;;
67063;SDS011;58476;48.072;11.970;2023-03-13T03:10:01;2.92;;;1.67;;
67063;SDS011;58476;48.072;11.970;2023-03-13T03:12:26;1.65;;;1.25;;
67063;SDS011;58476;48.072;11.970;2023-03-13T03:14:52;1.30;;;1.20;;
67063;SDS011;58476;48.072;11.970;2023-03-13T03:17:18;3.75;;;1.60;;
67063;SDS011;58476;48.072;11.970;2023-03-13T03:19:43;2.33;;;1.25;;
67063;SDS011;58476;48.072;11.970;2023-03-13T03:22:09;1.38;;;1.20;;
67063;SDS011;58476;48.072;11.970;2023-03-13T03:24:34;2.78;;;1.30;;
67063;SDS011;58476;48.072;11.970;2023-03-13T03:27:02;1.38;;;1.27;;
67063;SDS011;58476;48.072;11.970;2023-03-13T03:29:35;1.85;;;1.35;;
67063;SDS011;58476;48.072;11.970;2023-03-13T03:32:00;1.80;;;1.30;;
67063;SDS011;58476;48.072;11.970;2023-03-13T03:34:26;2.72;;;1.50;;
67063;SDS011;58476;48.072;11.970;2023-03-13T03:36:51;1.50;;;1.40;;
67063;SDS011;58476;48.072;11.970;2023-03-13T03:39:17;1.88;;;1.40;;
67063;SDS011;58476;48.072;11.970;2023-03-13T03:41:42;1.95;;;1.50;;
67063;SDS011;58476;48.072;11.970;2023-03-13T03:44:09;2.00;;;1.40;;
67063;SDS011;58476;48.072;11.970;2023-03-13T03:46:47;2.38;;;1.38;;
67063;SDS011;58476;48.072;11.970;2023-03-13T03:49:13;2.38;;;1.40;;
67063;SDS011;58476;48.072;11.970;2023-03-13T03:51:38;1.45;;;1.35;;
67063;SDS011;58476;48.072;11.970;2023-03-13T03:54:04;1.58;;;1.30;;
67063;SDS011;58476;48.072;11.970;2023-03-13T03:56:31;2.75;;;1.40;;
67063;SDS011;58476;48.072;11.970;2023-03-13T03:58:58;1.60;;;1.50;;
67063;SDS011;58476;48.072;11.970;2023-03-13T04:01:42;3.28;;;1.50;;
67063;SDS011;58476;48.072;11.970;2023-03-13T04:04:07;1.60;;;1.35;;
67063;SDS011;58476;48.072;11.970;2023-03-13T04:06:33;1.58;;;1.48;;
67063;SDS011;58476;48.072;11.970;2023-03-13T04:09:00;1.65;;;1.40;;
67063;SDS011;58476;48.072;11.970;2023-03-13T04:11:27;1.40;;;1.30;;
67063;SDS011;58476;48.072;11.970;2023-03-13T04:13:54;1.98;;;1.30;;
67063;SDS011;58476;48.072;11.970;2023-03-13T04:16:20;1.77;;;1.33;;
67063;SDS011;58476;48.072;11.970;2023-03-13T04:18:46;1.63;;;1.42;;
67063;SDS011;58476;48.072;11.970;2023-03-13T04:21:12;1.60;;;1.40;;
67063;SDS011;58476;48.072;11.970;2023-03-13T04:23:42;1.55;;;1.40;;
67063;SDS011;58476;48.072;11.970;2023-03-13T04:26:08;1.60;;;1.40;;
67063;SDS011;58476;48.072;11.970;2023-03-13T04:28:33;1.40;;;1.30;;
67063;SDS011;58476;48.072;11.970;2023-03-13T04:31:00;2.60;;;1.50;;
67063;SDS011;58476;48.072;11.970;2023-03-13T04:33:44;1.45;;;1.30;;
67063;SDS011;58476;48.072;11.970;2023-03-13T04:36:18;1.60;;;1.40;;
67063;SDS011;58476;48.072;11.970;2023-03-13T04:38:57;1.55;;;1.45;;
67063;SDS011;58476;48.072;11.970;2023-03-13T04:41:43;1.65;;;1.45;;
67063;SDS011;58476;48.072;11.970;2023-03-13T04:44:14;1.70;;;1.30;;
67063;SDS011;58476;48.072;11.970;2023-03-13T04:46:56;1.90;;;1.30;;
67063;SDS011;58476;48.072;11.970;2023-03-13T04:49:45;1.40;;;1.30;;
67063;SDS011;58476;48.072;11.970;2023-03-13T04:52:24;2.05;;;1.33;;
67063;SDS011;58476;48.072;11.970;2023-03-13T04:55:09;3.28;;;1.42;;
67063;SDS011;58476;48.072;11.970;2023-03-13T04:57:47;1.52;;;1.27;;
67063;SDS011;58476;48.072;11.970;2023-03-13T05:00:35;3.05;;;1.40;;
67063;SDS011;58476;48.072;11.970;2023-03-13T05:03:21;3.65;;;1.70;;
67063;SDS011;58476;48.072;11.970;2023-03-13T05:06:08;3.50;;;1.58;;
67063;SDS011;58476;48.072;11.970;2023-03-13T05:08:36;3.08;;;1.50;;
67063;SDS011;58476;48.072;11.970;2023-03-13T05:11:16;2.83;;;1.50;;
67063;SDS011;58476;48.072;11.970;2023-03-13T05:14:04;3.28;;;1.40;;
67063;SDS011;58476;48.072;11.970;2023-03-13T05:16:59;1.73;;;1.50;;
67063;SDS011;58476;48.072;11.970;2023-03-13T05:20:02;5.57;;;1.58;;
67063;SDS011;58476;48.072;11.970;2023-03-13T05:22:39;9.40;;;1.50;;
67063;SDS011;58476;48.072;11.970;2023-03-13T05:25:23;5.38;;;2.00;;
67063;SDS011;58476;48.072;11.970;2023-03-13T05:28:07;4.70;;;1.58;;
67063;SDS011;58476;48.072;11.970;2023-03-13T05:31:05;17.65;;;3.05;;
67063;SDS011;58476;48.072;11.970;2023-03-13T05:33:49;3.05;;;1.70;;
67063;SDS011;58476;48.072;11.970;2023-03-13T05:36:26;11.82;;;2.03;;
67063;SDS011;58476;48.072;11.970;2023-03-13T05:39:02;6.63;;;1.83;;
67063;SDS011;58476;48.072;11.970;2023-03-13T05:41:40;8.63;;;1.60;;
67063;SDS011;58476;48.072;11.970;2023-03-13T05:44:17;16.67;;;2.05;;
67063;SDS011;58476;48.072;11.970;2023-03-13T05:47:01;10.93;;;1.75;;
67063;SDS011;58476;48.072;11.970;2023-03-13T05:49:45;11.73;;;1.90;;
67063;SDS011;58476;48.072;11.970;2023-03-13T05:52:31;8.65;;;2.03;;
67063;SDS011;58476;48.072;11.970;2023-03-13T05:55:20;17.48;;;2.47;;
67063;SDS011;58476;48.072;11.970;2023-03-13T05:58:01;17.42;;;2.17;;
67063;SDS011;58476;48.072;11.970;2023-03-13T06:00:49;25.05;;;3.22;;
67063;SDS011;58476;48.072;11.970;2023-03-13T06:03:38;23.27;;;3.58;;
67063;SDS011;58476;48.072;11.970;2023-03-13T06:06:03;25.98;;;3.88;;
67063;SDS011;58476;48.072;11.970;2023-03-13T06:08:37;25.85;;;3.50;;
67063;SDS011;58476;48.072;11.970;2023-03-13T06:11:03;22.92;;;3.13;;
67063;SDS011;58476;48.072;11.970;2023-03-13T06:13:28;13.35;;;2.30;;
67063;SDS011;58476;48.072;11.970;2023-03-13T06:15:58;31.83;;;2.80;;
67063;SDS011;58476;48.072;11.970;2023-03-13T06:18:42;25.35;;;2.95;;
67063;SDS011;58476;48.072;11.970;2023-03-13T06:21:07;23.30;;;3.20;;
67063;SDS011;58476;48.072;11.970;2023-03-13T06:23:33;8.13;;;2.78;;
67063;SDS011;58476;48.072;11.970;2023-03-13T06:25:59;13.05;;;3.03;;
67063;SDS011;58476;48.072;11.970;2023-03-13T06:28:24;10.38;;;2.78;;
67063;SDS011;58476;48.072;11.970;2023-03-13T06:30:50;15.77;;;2.55;;
67063;SDS011;58476;48.072;11.970;2023-03-13T06:33:15;13.68;;;2.72;;
67063;SDS011;58476;48.072;11.970;2023-03-13T06:35:41;14.40;;;2.80;;
67063;SDS011;58476;48.072;11.970;2023-03-13T06:38:08;13.18;;;2.83;;
67063;SDS011;58476;48.072;11.970;2023-03-13T06:40:34;10.05;;;3.13;;
67063;SDS011;58476;48.072;11.970;2023-03-13T06:42:59;14.05;;;2.75;;
67063;SDS011;58476;48.072;11.970;2023-03-13T06:45:25;19.02;;;2.65;;
67063;SDS011;58476;48.072;11.970;2023-03-13T06:47:50;14.35;;;3.00;;
67063;SDS011;58476;48.072;11.970;2023-03-13T06:50:15;30.70;;;4.32;;
67063;SDS011;58476;48.072;11.970;2023-03-13T06:52:41;36.95;;;3.42;;
67063;SDS011;58476;48.072;11.970;2023-03-13T06:55:06;21.13;;;3.47;;
67063;SDS011;58476;48.072;11.970;2023-03-13T06:57:32;20.85;;;3.83;;
67063;SDS011;58476;48.072;11.970;2023-03-13T06:59:58;25.05;;;3.25;;
67063;SDS011;58476;48.072;11.970;2023-03-13T07:02:23;45.58;;;7.03;;
67063;SDS011;58476;48.072;11.970;2023-03-13T07:04:48;17.58;;;3.28;;
67063;SDS011;58476;48.072;11.970;2023-03-13T07:07:14;23.83;;;4.78;;
67063;SDS011;58476;48.072;11.970;2023-03-13T07:09:39;22.02;;;4.00;;
67063;SDS011;58476;48.072;11.970;2023-03-13T07:12:04;27.63;;;3.92;;
67063;SDS011;58476;48.072;11.970;2023-03-13T07:14:30;26.73;;;3.47;;
67063;SDS011;58476;48.072;11.970;2023-03-13T07:16:57;25.58;;;3.67;;
67063;SDS011;58476;48.072;11.970;2023-03-13T07:19:23;28.90;;;4.05;;
67063;SDS011;58476;48.072;11.970;2023-03-13T07:21:48;27.23;;;3.88;;
67063;SDS011;58476;48.072;11.970;2023-03-13T07:24:14;31.70;;;3.30;;
67063;SDS011;58476;48.072;11.970;2023-03-13T07:26:39;22.27;;;3.50;;
67063;SDS011;58476;48.072;11.970;2023-03-13T07:29:04;21.25;;;3.47;;
67063;SDS011;58476;48.072;11.970;2023-03-13T07:31:30;28.75;;;3.83;;
67063;SDS011;58476;48.072;11.970;2023-03-13T07:33:55;18.80;;;5.18;;
67063;SDS011;58476;48.072;11.970;2023-03-13T07:36:20;23.40;;;3.35;;
67063;SDS011;58476;48.072;11.970;2023-03-13T07:38:50;20.60;;;3.28;;
67063;SDS011;58476;48.072;11.970;2023-03-13T07:41:16;16.38;;;2.97;;
67063;SDS011;58476;48.072;11.970;2023-03-13T07:43:42;16.90;;;3.05;;
67063;SDS011;58476;48.072;11.970;2023-03-13T07:46:07;16.60;;;2.97;;
67063;SDS011;58476;48.072;11.970;2023-03-13T07:48:36;14.45;;;2.60;;
67063;SDS011;58476;48.072;11.970;2023-03-13T07:51:03;14.88;;;2.70;;
67063;SDS011;58476;48.072;11.970;2023-03-13T07:53:30;10.90;;;3.05;;
67063;SDS011;58476;48.072;11.970;2023-03-13T07:55:59;12.30;;;2.38;;
67063;SDS011;58476;48.072;11.970;2023-03-13T07:58:29;17.17;;;2.70;;
67063;SDS011;58476;48.072;11.970;2023-03-13T08:00:56;13.47;;;2.60;;
67063;SDS011;58476;48.072;11.970;2023-03-13T08:03:22;17.17;;;2.30;;
67063;SDS011;58476;48.072;11.970;2023-03-13T08:05:58;10.13;;;2.20;;
67063;SDS011;58476;48.072;11.970;2023-03-13T08:08:25;17.50;;;3.03;;
67063;SDS011;58476;48.072;11.970;2023-03-13T08:10:50;22.48;;;5.60;;
67063;SDS011;58476;48.072;11.970;2023-03-13T08:13:15;15.23;;;2.50;;
67063;SDS011;58476;48.072;11.970;2023-03-13T08:15:41;13.88;;;2.92;;
67063;SDS011;58476;48.072;11.970;2023-03-13T08:18:06;12.52;;;2.30;;
67063;SDS011;58476;48.072;11.970;2023-03-13T08:20:31;9.95;;;3.13;;
67063;SDS011;58476;48.072;11.970;2023-03-13T08:22:57;10.52;;;2.50;;
67063;SDS011;58476;48.072;11.970;2023-03-13T08:25:22;13.95;;;2.65;;
67063;SDS011;58476;48.072;11.970;2023-03-13T08:27:47;14.73;;;2.63;;
67063;SDS011;58476;48.072;11.970;2023-03-13T08:30:13;10.80;;;2.50;;
67063;SDS011;58476;48.072;11.970;2023-03-13T08:32:38;15.00;;;2.60;;
67063;SDS011;58476;48.072;11.970;2023-03-13T08:35:04;18.40;;;3.20;;
67063;SDS011;58476;48.072;11.970;2023-03-13T08:37:30;14.23;;;3.15;;
67063;SDS011;58476;48.072;11.970;2023-03-13T08:39:55;11.77;;;2.70;;
67063;SDS011;58476;48.072;11.970;2023-03-13T08:42:21;15.18;;;3.13;;
67063;SDS011;58476;48.072;11.970;2023-03-13T08:44:47;15.85;;;3.20;;
67063;SDS011;58476;48.072;11.970;2023-03-13T08:47:12;23.50;;;3.13;;
67063;SDS011;58476;48.072;11.970;2023-03-13T08:49:38;24.48;;;7.28;;
67063;SDS011;58476;48.072;11.970;2023-03-13T08:52:03;17.92;;;3.25;;
67063;SDS011;58476;48.072;11.970;2023-03-13T08:54:30;26.00;;;3.50;;
67063;SDS011;58476;48.072;11.970;2023-03-13T08:56:55;15.60;;;2.53;;
67063;SDS011;58476;48.072;11.970;2023-03-13T08:59:21;27.42;;;3.05;;
67063;SDS011;58476;48.072;11.970;2023-03-13T09:01:46;16.83;;;3.10;;
67063;SDS011;58476;48.072;11.970;2023-03-13T09:04:11;10.45;;;2.47;;
67063;SDS011;58476;48.072;11.970;2023-03-13T09:06:37;22.98;;;3.10;;
67063;SDS011;58476;48.072;11.970;2023-03-13T09:09:03;16.23;;;3.28;;
67063;SDS011;58476;48.072;11.970;2023-03-13T09:11:29;14.35;;;2.78;;
67063;SDS011;58476;48.072;11.970;2023-03-13T09:13:55;17.30;;;2.10;;
67063;SDS011;58476;48.072;11.970;2023-03-13T09:16:22;12.40;;;3.03;;
67063;SDS011;58476;48.072;11.970;2023-03-13T09:18:49;14.68;;;3.22;;
67063;SDS011;58476;48.072;11.970;2023-03-13T09:21:19;13.40;;;2.20;;
67063;SDS011;58476;48.072;11.970;2023-03-13T09:23:45;17.45;;;3.08;;
67063;SDS011;58476;48.072;11.970;2023-03-13T09:26:11;6.78;;;2.13;;
67063;SDS011;58476;48.072;11.970;2023-03-13T09:28:36;9.20;;;3.38;;
67063;SDS011;58476;48.072;11.970;2023-03-13T09:31:05;12.63;;;3.85;;
67063;SDS011;58476;48.072;11.970;2023-03-13T09:33:32;11.02;;;2.40;;
67063;SDS011;58476;48.072;11.970;2023-03-13T09:35:57;10.65;;;2.78;;
67063;SDS011;58476;48.072;11.970;2023-03-13T09:38:23;9.20;;;2.58;;
67063;SDS011;58476;48.072;11.970;2023-03-13T09:40:48;8.23;;;2.25;;
67063;SDS011;58476;48.072;11.970;2023-03-13T09:45:53;8.32;;;2.15;;
67063;SDS011;58476;48.072;11.970;2023-03-13T09:53:42;6.60;;;1.90;;
67063;SDS011;58476;48.072;11.970;2023-03-13T09:56:18;4.95;;;1.95;;
67063;SDS011;58476;48.072;11.970;2023-03-13T09:58:52;5.40;;;2.10;;
67063;SDS011;58476;48.072;11.970;2023-03-13T10:01:19;3.20;;;1.90;;
67063;SDS011;58476;48.072;11.970;2023-03-13T10:03:53;5.15;;;2.33;;
67063;SDS011;58476;48.072;11.970;2023-03-13T10:06:26;5.30;;;1.90;;
67063;SDS011;58476;48.072;11.970;2023-03-13T10:08:53;4.95;;;1.90;;
67063;SDS011;58476;48.072;11.970;2023-03-13T10:11:29;5.10;;;2.03;;
67063;SDS011;58476;48.072;11.970;2023-03-13T10:14:28;7.93;;;1.90;;
67063;SDS011;58476;48.072;11.970;2023-03-13T10:17:00;6.90;;;1.85;;
67063;SDS011;58476;48.072;11.970;2023-03-13T10:19:33;3.72;;;2.00;;
67063;SDS011;58476;48.072;11.970;2023-03-13T10:22:01;4.40;;;2.10;;
67063;SDS011;58476;48.072;11.970;2023-03-13T10:24:33;5.20;;;1.88;;
67063;SDS011;58476;48.072;11.970;2023-03-13T10:27:14;4.53;;;1.90;;
67063;SDS011;58476;48.072;11.970;2023-03-13T10:29:39;3.88;;;1.70;;
67063;SDS011;58476;48.072;11.970;2023-03-13T10:32:05;2.53;;;1.70;;
67063;SDS011;58476;48.072;11.970;2023-03-13T10:34:44;4.18;;;2.00;;
67063;SDS011;58476;48.072;11.970;2023-03-13T10:37:14;3.35;;;1.50;;
67063;SDS011;58476;48.072;11.970;2023-03-13T10:39:43;4.15;;;1.73;;
67063;SDS011;58476;48.072;11.970;2023-03-13T10:42:10;2.92;;;1.70;;
67063;SDS011;58476;48.072;11.970;2023-03-13T10:44:43;5.32;;;1.75;;
67063;SDS011;58476;48.072;11.970;2023-03-13T10:47:10;5.35;;;1.70;;
67063;SDS011;58476;48.072;11.970;2023-03-13T10:49:45;5.35;;;2.65;;
67063;SDS011;58476;48.072;11.970;2023-03-13T10:52:26;2.80;;;1.55;;
67063;SDS011;58476;48.072;11.970;2023-03-13T10:54:54;3.05;;;1.50;;
67063;SDS011;58476;48.072;11.970;2023-03-13T10:59:49;3.38;;;1.40;;
67063;SDS011;58476;48.072;11.970;2023-03-13T11:02:25;1.90;;;1.40;;
67063;SDS011;58476;48.072;11.970;2023-03-13T11:04:54;2.50;;;1.40;;
67063;SDS011;58476;48.072;11.970;2023-03-13T11:09:58;2.55;;;1.92;;
67063;SDS011;58476;48.072;11.970;2023-03-13T11:12:46;2.72;;;1.33;;
67063;SDS011;58476;48.072;11.970;2023-03-13T11:18:05;5.28;;;1.60;;
67063;SDS011;58476;48.072;11.970;2023-03-13T11:20:40;3.05;;;1.30;;
67063;SDS011;58476;48.072;11.970;2023-03-13T11:23:19;3.05;;;1.27;;
67063;SDS011;58476;48.072;11.970;2023-03-13T11:34:11;2.95;;;1.20;;
67063;SDS011;58476;48.072;11.970;2023-03-13T11:36:52;2.25;;;1.10;;
67063;SDS011;58476;48.072;11.970;2023-03-13T11:50:00;4.35;;;1.45;;
67063;SDS011;58476;48.072;11.970;2023-03-13T11:52:37;1.90;;;1.17;;
67063;SDS011;58476;48.072;11.970;2023-03-13T12:00:26;5.28;;;1.30;;
67063;SDS011;58476;48.072;11.970;2023-03-13T12:02:56;2.88;;;1.40;;
67063;SDS011;58476;48.072;11.970;2023-03-13T12:05:28;4.22;;;1.60;;
67063;SDS011;58476;48.072;11.970;2023-03-13T12:08:08;2.95;;;1.85;;
67063;SDS011;58476;48.072;11.970;2023-03-13T12:10:40;4.82;;;1.10;;
67063;SDS011;58476;48.072;11.970;2023-03-13T12:13:12;2.70;;;1.10;;
67063;SDS011;58476;48.072;11.970;2023-03-13T12:15:45;2.35;;;1.27;;
67063;SDS011;58476;48.072;11.970;2023-03-13T12:18:34;3.28;;;1.10;;
67063;SDS011;58476;48.072;11.970;2023-03-13T12:28:59;2.42;;;1.00;;
67063;SDS011;58476;48.072;11.970;2023-03-13T12:31:37;8.38;;;1.20;;
67063;SDS011;58476;48.072;11.970;2023-03-13T12:39:44;2.15;;;1.70;;
67063;SDS011;58476;48.072;11.970;2023-03-13T12:44:56;4.78;;;1.05;;
67063;SDS011;58476;48.072;11.970;2023-03-13T12:47:29;2.85;;;1.00;;
67063;SDS011;58476;48.072;11.970;2023-03-13T12:50:00;2.72;;;1.10;;
67063;SDS011;58476;48.072;11.970;2023-03-13T12:55:27;1.25;;;1.10;;
67063;SDS011;58476;48.072;11.970;2023-03-13T13:01:05;3.67;;;0.93;;
67063;SDS011;58476;48.072;11.970;2023-03-13T13:03:35;3.88;;;1.40;;
67063;SDS011;58476;48.072;11.970;2023-03-13T13:08:40;3.30;;;0.90;;
67063;SDS011;58476;48.072;11.970;2023-03-13T13:13:58;6.00;;;1.10;;
67063;SDS011;58476;48.072;11.970;2023-03-13T13:16:24;4.32;;;1.05;;
67063;SDS011;58476;48.072;11.970;2023-03-13T13:18:50;1.55;;;0.70;;
67063;SDS011;58476;48.072;11.970;2023-03-13T13:23:45;1.58;;;0.68;;
67063;SDS011;58476;48.072;11.970;2023-03-13T13:28:49;1.33;;;0.90;;
67063;SDS011;58476;48.072;11.970;2023-03-13T13:36:54;3.53;;;0.95;;
67063;SDS011;58476;48.072;11.970;2023-03-13T13:39:28;8.63;;;1.10;;
67063;SDS011;58476;48.072;11.970;2023-03-13T13:41:56;3.78;;;1.08;;
67063;SDS011;58476;48.072;11.970;2023-03-13T13:44:22;6.32;;;1.15;;
67063;SDS011;58476;48.072;11.970;2023-03-13T13:46:49;1.27;;;0.90;;
67063;SDS011;58476;48.072;11.970;2023-03-13T13:49:20;3.28;;;0.77;;
67063;SDS011;58476;48.072;11.970;2023-03-13T13:57:11;6.18;;;1.10;;
67063;SDS011;58476;48.072;11.970;2023-03-13T13:59:59;1.38;;;0.73;;
67063;SDS011;58476;48.072;11.970;2023-03-13T14:02:35;6.35;;;0.90;;
67063;SDS011;58476;48.072;11.970;2023-03-13T14:13:16;5.20;;;1.00;;
67063;SDS011;58476;48.072;11.970;2023-03-13T14:15:48;6.38;;;2.42;;
67063;SDS011;58476;48.072;11.970;2023-03-13T14:18:18;2.38;;;1.00;;
67063;SDS011;58476;48.072;11.970;2023-03-13T14:20:57;1.23;;;0.90;;
67063;SDS011;58476;48.072;11.970;2023-03-13T14:23:29;1.15;;;1.02;;
67063;SDS011;58476;48.072;11.970;2023-03-13T14:26:07;1.38;;;1.05;;
67063;SDS011;58476;48.072;11.970;2023-03-13T14:28:51;3.08;;;0.90;;
67063;SDS011;58476;48.072;11.970;2023-03-13T14:33:48;1.73;;;0.88;;
67063;SDS011;58476;48.072;11.970;2023-03-13T14:36:14;0.80;;;0.80;;
67063;SDS011;58476;48.072;11.970;2023-03-13T14:38:39;1.20;;;0.80;;
67063;SDS011;58476;48.072;11.970;2023-03-13T14:41:22;1.75;;;0.90;;
67063;SDS011;58476;48.072;11.970;2023-03-13T14:43:53;1.38;;;0.95;;
67063;SDS011;58476;48.072;11.970;2023-03-13T14:48:53;1.30;;;1.15;;
67063;SDS011;58476;48.072;11.970;2023-03-13T14:51:20;7.57;;;1.40;;
67063;SDS011;58476;48.072;11.970;2023-03-13T14:54:00;3.55;;;1.80;;
67063;SDS011;58476;48.072;11.970;2023-03-13T14:56:34;1.65;;;1.13;;
67063;SDS011;58476;48.072;11.970;2023-03-13T14:59:05;1.52;;;0.95;;
67063;SDS011;58476;48.072;11.970;2023-03-13T15:01:31;3.90;;;1.15;;
67063;SDS011;58476;48.072;11.970;2023-03-13T15:03:57;0.80;;;0.80;;
67063;SDS011;58476;48.072;11.970;2023-03-13T15:06:23;2.83;;;1.20;;
67063;SDS011;58476;48.072;11.970;2023-03-13T15:17:00;2.15;;;1.10;;
67063;SDS011;58476;48.072;11.970;2023-03-13T15:19:25;2.80;;;1.35;;
67063;SDS011;58476;48.072;11.970;2023-03-13T15:21:51;2.55;;;1.10;;
67063;SDS011;58476;48.072;11.970;2023-03-13T15:24:17;1.48;;;1.00;;
67063;SDS011;58476;48.072;11.970;2023-03-13T15:26:42;3.55;;;1.20;;
67063;SDS011;58476;48.072;11.970;2023-03-13T15:29:11;2.25;;;0.95;;
67063;SDS011;58476;48.072;11.970;2023-03-13T15:31:37;1.80;;;1.10;;
67063;SDS011;58476;48.072;11.970;2023-03-13T15:34:02;1.83;;;1.10;;
67063;SDS011;58476;48.072;11.970;2023-03-13T15:36:28;2.42;;;0.90;;
67063;SDS011;58476;48.072;11.970;2023-03-13T15:38:55;0.98;;;0.90;;
67063;SDS011;58476;48.072;11.970;2023-03-13T15:41:21;1.38;;;0.90;;
67063;SDS011;58476;48.072;11.970;2023-03-13T15:43:47;1.00;;;0.90;;
67063;SDS011;58476;48.072;11.970;2023-03-13T15:46:13;1.13;;;0.93;;
67063;SDS011;58476;48.072;11.970;2023-03-13T15:48:38;2.20;;;1.13;;
67063;SDS011;58476;48.072;11.970;2023-03-13T15:51:03;2.75;;;1.05;;
67063;SDS011;58476;48.072;11.970;2023-03-13T15:53:32;1.17;;;1.08;;
67063;SDS011;58476;48.072;11.970;2023-03-13T15:55:59;2.75;;;1.20;;
67063;SDS011;58476;48.072;11.970;2023-03-13T15:58:26;4.97;;;1.50;;
67063;SDS011;58476;48.072;11.970;2023-03-13T16:00:52;6.07;;;1.30;;
67063;SDS011;58476;48.072;11.970;2023-03-13T16:03:19;2.17;;;0.88;;
67063;SDS011;58476;48.072;11.970;2023-03-13T16:05:48;3.95;;;1.00;;
67063;SDS011;58476;48.072;11.970;2023-03-13T16:08:15;1.73;;;1.10;;
67063;SDS011;58476;48.072;11.970;2023-03-13T16:10:50;1.50;;;1.20;;
67063;SDS011;58476;48.072;11.970;2023-03-13T16:13:16;2.88;;;0.85;;
67063;SDS011;58476;48.072;11.970;2023-03-13T16:15:42;4.13;;;1.10;;
67063;SDS011;58476;48.072;11.970;2023-03-13T16:18:18;1.92;;;1.30;;
67063;SDS011;58476;48.072;11.970;2023-03-13T16:20:46;1.83;;;1.20;;
67063;SDS011;58476;48.072;11.970;2023-03-13T16:23:11;4.15;;;1.08;;
67063;SDS011;58476;48.072;11.970;2023-03-13T16:25:37;1.23;;;1.00;;
67063;SDS011;58476;48.072;11.970;2023-03-13T16:28:02;3.92;;;1.02;;
67063;SDS011;58476;48.072;11.970;2023-03-13T16:30:29;2.42;;;0.98;;
67063;SDS011;58476;48.072;11.970;2023-03-13T16:32:56;6.15;;;1.10;;
67063;SDS011;58476;48.072;11.970;2023-03-13T16:35:22;6.50;;;1.33;;
67063;SDS011;58476;48.072;11.970;2023-03-13T16:37:49;9.45;;;1.90;;
67063;SDS011;58476;48.072;11.970;2023-03-13T16:40:15;16.60;;;4.65;;
67063;SDS011;58476;48.072;11.970;2023-03-13T16:42:45;22.25;;;5.00;;
67063;SDS011;58476;48.072;11.970;2023-03-13T16:45:11;80.18;;;26.45;;
67063;SDS011;58476;48.072;11.970;2023-03-13T16:47:37;43.08;;;15.13;;